createdAt,value
2019-04-06T00:02:32.178Z,18.48
2019-04-06T00:05:02.503Z,18.65
2019-04-06T00:07:32.970Z,18.35
2019-04-06T00:10:03.345Z,20.77
2019-04-06T00:12:34.723Z,19.57
2019-04-06T00:15:06.959Z,18.35
2019-04-06T00:17:37.327Z,16.75
2019-04-06T00:20:07.650Z,19.02
2019-04-06T00:22:38.160Z,17.75
2019-04-06T00:25:08.628Z,18.15
2019-04-06T00:27:39.078Z,20.00
2019-04-06T00:30:09.447Z,17.45
2019-04-06T00:32:47.761Z,18.90
2019-04-06T00:35:18.042Z,17.17
2019-04-06T00:37:48.599Z,16.90
2019-04-06T00:40:18.962Z,18.00
2019-04-06T00:42:49.467Z,17.65
2019-04-06T00:45:31.525Z,16.85
2019-04-06T00:48:01.940Z,18.82
2019-04-06T00:50:32.316Z,16.87
2019-04-06T00:53:02.733Z,16.70
2019-04-06T00:55:33.060Z,17.00
2019-04-06T00:58:03.298Z,16.02
2019-04-06T01:00:33.548Z,18.05
2019-04-06T01:03:03.944Z,18.05
2019-04-06T01:05:34.382Z,18.92
2019-04-06T01:08:04.914Z,15.60
2019-04-06T01:10:35.113Z,15.13
2019-04-06T01:13:05.509Z,17.32
2019-04-06T01:15:35.829Z,15.32
2019-04-06T01:18:07.224Z,15.78
2019-04-06T01:20:37.551Z,16.67
2019-04-06T01:23:07.960Z,16.07
2019-04-06T01:25:38.341Z,15.63
2019-04-06T01:28:08.661Z,14.60
2019-04-06T01:30:38.985Z,15.78
2019-04-06T01:33:09.324Z,17.50
2019-04-06T01:35:40.697Z,17.15
2019-04-06T01:38:11.027Z,15.25
2019-04-06T01:40:41.281Z,19.73
2019-04-06T01:43:11.587Z,17.55
2019-04-06T01:45:41.936Z,16.25
2019-04-06T01:48:12.230Z,15.55
2019-04-06T01:50:42.495Z,15.32
2019-04-06T01:53:12.918Z,14.07
2019-04-06T01:55:43.253Z,15.58
2019-04-06T01:58:13.564Z,15.88
2019-04-06T02:00:56.923Z,15.50
2019-04-06T02:03:27.247Z,16.52
2019-04-06T02:05:57.611Z,15.85
2019-04-06T02:08:28.113Z,15.05
2019-04-06T02:10:58.497Z,13.00
2019-04-06T02:13:28.972Z,15.85
2019-04-06T02:15:59.557Z,16.23
2019-04-06T02:18:29.926Z,14.73
2019-04-06T02:21:00.372Z,17.90
2019-04-06T02:23:30.797Z,16.00
2019-04-06T02:26:01.105Z,16.85
2019-04-06T02:28:31.454Z,17.90
2019-04-06T02:31:11.704Z,14.40
2019-04-06T02:34:05.542Z,14.90
2019-04-06T02:36:52.603Z,14.40
2019-04-06T02:39:41.873Z,14.10
2019-04-06T02:42:34.379Z,13.08
2019-04-06T02:45:04.878Z,14.35
2019-04-06T02:47:35.475Z,13.62
2019-04-06T02:50:06.472Z,14.07
2019-04-06T02:52:49.017Z,14.90
2019-04-06T02:55:19.613Z,15.20
2019-04-06T02:57:50.104Z,14.35
2019-04-06T03:00:20.565Z,14.38
2019-04-06T03:02:50.975Z,15.45
2019-04-06T03:05:21.188Z,14.60
2019-04-06T03:07:51.807Z,14.78
2019-04-06T03:10:22.425Z,14.60
2019-04-06T03:12:52.830Z,16.57
2019-04-06T03:15:23.309Z,16.35
2019-04-06T03:17:53.551Z,14.35
2019-04-06T03:20:24.006Z,15.15
2019-04-06T03:22:54.467Z,15.83
2019-04-06T03:25:24.719Z,15.68
2019-04-06T03:27:55.117Z,14.98
2019-04-06T03:30:25.811Z,15.90
2019-04-06T03:32:56.320Z,14.63
2019-04-06T03:35:26.528Z,14.55
2019-04-06T03:37:56.880Z,15.38
2019-04-06T03:40:27.383Z,13.38
2019-04-06T03:42:58.016Z,13.15
2019-04-06T03:45:28.332Z,13.35
2019-04-06T03:47:58.757Z,14.53
2019-04-06T03:50:29.015Z,13.50
2019-04-06T03:52:59.498Z,13.18
2019-04-06T03:55:29.990Z,12.13
2019-04-06T03:58:00.452Z,15.85
2019-04-06T04:00:30.749Z,13.25
2019-04-06T04:03:01.273Z,12.95
2019-04-06T04:05:31.593Z,13.25
2019-04-06T04:08:02.218Z,12.35
2019-04-06T04:10:33.812Z,13.68
2019-04-06T04:13:04.078Z,13.68
2019-04-06T04:15:34.609Z,13.13
2019-04-06T04:18:05.219Z,12.95
2019-04-06T04:20:35.530Z,15.83
2019-04-06T04:23:05.876Z,12.35
2019-04-06T04:25:36.266Z,13.30
2019-04-06T04:28:06.778Z,14.53
2019-04-06T04:30:37.081Z,15.10
2019-04-06T04:33:07.563Z,11.95
2019-04-06T04:35:38.221Z,14.15
2019-04-06T04:38:08.736Z,11.93
2019-04-06T04:40:38.987Z,15.95
2019-04-06T04:43:09.389Z,13.30
2019-04-06T04:45:39.599Z,14.40
2019-04-06T04:48:11.029Z,14.33
2019-04-06T04:50:41.383Z,12.65
2019-04-06T04:53:11.747Z,14.35
2019-04-06T04:55:42.094Z,14.98
2019-04-06T04:58:12.537Z,13.80
2019-04-06T05:00:42.951Z,14.05
2019-04-06T05:03:13.299Z,12.07
2019-04-06T05:05:43.745Z,14.00
2019-04-06T05:08:14.186Z,12.82
2019-04-06T05:10:44.542Z,14.18
2019-04-06T05:13:15.001Z,13.28
2019-04-06T05:16:09.466Z,14.87
2019-04-06T05:18:40.379Z,15.55
2019-04-06T05:21:11.026Z,14.20
2019-04-06T05:23:41.447Z,16.70
2019-04-06T05:26:11.783Z,15.10
2019-04-06T05:28:42.267Z,13.85
2019-04-06T05:31:24.562Z,13.93
2019-04-06T05:33:54.983Z,12.82
2019-04-06T05:36:25.415Z,15.88
2019-04-06T05:38:56.167Z,15.85
2019-04-06T05:41:26.602Z,18.67
2019-04-06T05:43:56.999Z,13.48
2019-04-06T05:46:27.436Z,13.03
2019-04-06T05:48:57.807Z,12.03
2019-04-06T05:51:28.247Z,15.40
2019-04-06T05:53:58.540Z,15.83
2019-04-06T05:56:28.864Z,13.48
2019-04-06T05:58:59.200Z,16.32
2019-04-06T06:01:29.601Z,13.15
2019-04-06T06:03:59.907Z,18.90
2019-04-06T06:06:30.276Z,12.23
2019-04-06T06:09:00.786Z,14.13
2019-04-06T06:11:32.119Z,13.30
2019-04-06T06:14:02.476Z,12.70
2019-04-06T06:16:32.930Z,13.25
2019-04-06T06:19:03.234Z,13.95
2019-04-06T06:21:33.654Z,12.03
2019-04-06T06:24:03.970Z,13.13
2019-04-06T06:26:35.434Z,14.28
2019-04-06T06:29:05.856Z,13.28
2019-04-06T06:31:36.261Z,13.48
2019-04-06T06:34:06.632Z,16.50
2019-04-06T06:36:37.014Z,13.50
2019-04-06T06:39:09.330Z,12.25
2019-04-06T06:41:39.924Z,12.05
2019-04-06T06:44:10.350Z,12.37
2019-04-06T06:46:40.710Z,13.28
2019-04-06T06:49:11.037Z,12.05
2019-04-06T06:51:41.640Z,11.35
2019-04-06T06:54:12.166Z,13.00
2019-04-06T06:56:42.491Z,11.93
2019-04-06T06:59:12.905Z,12.23
2019-04-06T07:01:43.302Z,14.13
2019-04-06T07:04:13.659Z,13.70
2019-04-06T07:06:55.525Z,12.75
2019-04-06T07:09:25.841Z,11.65
2019-04-06T07:12:15.298Z,11.93
2019-04-06T07:14:45.735Z,12.68
2019-04-06T07:17:16.688Z,11.33
2019-04-06T07:19:47.264Z,12.07
2019-04-06T07:22:17.816Z,12.50
2019-04-06T07:24:48.356Z,11.15
2019-04-06T07:27:18.825Z,12.35
2019-04-06T07:29:50.243Z,12.18
2019-04-06T07:32:20.704Z,11.35
2019-04-06T07:34:51.094Z,11.88
2019-04-06T07:37:21.523Z,11.97
2019-04-06T07:39:52.174Z,11.55
2019-04-06T07:42:22.645Z,11.33
2019-04-06T07:44:53.125Z,12.28
2019-04-06T07:47:23.751Z,11.30
2019-04-06T07:49:54.366Z,12.05
2019-04-06T07:52:24.982Z,12.50
2019-04-06T07:54:55.307Z,11.90
2019-04-06T07:57:25.660Z,10.68
2019-04-06T07:59:56.109Z,12.98
2019-04-06T08:02:26.624Z,11.78
2019-04-06T08:04:57.040Z,10.15
2019-04-06T08:07:27.527Z,10.63
2019-04-06T08:09:57.905Z,12.35
2019-04-06T08:12:28.345Z,12.07
2019-04-06T08:14:58.736Z,12.00
2019-04-06T08:17:29.096Z,12.25
2019-04-06T08:19:59.716Z,14.60
2019-04-06T08:22:30.262Z,11.70
2019-04-06T08:25:00.710Z,10.58
2019-04-06T08:27:31.220Z,11.73
2019-04-06T08:30:01.507Z,12.55
2019-04-06T08:32:32.051Z,12.15
2019-04-06T08:35:02.514Z,11.90
2019-04-06T08:37:51.956Z,10.88
2019-04-06T08:40:22.349Z,11.30
2019-04-06T08:42:52.750Z,11.85
2019-04-06T08:45:23.046Z,9.98
2019-04-06T08:47:53.447Z,13.00
2019-04-06T08:50:23.810Z,12.75
2019-04-06T08:52:54.207Z,10.60
2019-04-06T08:55:24.701Z,12.28
2019-04-06T08:57:55.027Z,9.68
2019-04-06T09:00:25.509Z,9.60
2019-04-06T09:02:56.048Z,10.38
2019-04-06T09:05:26.410Z,10.05
2019-04-06T09:07:56.782Z,11.65
2019-04-06T09:10:39.467Z,11.00
2019-04-06T09:13:09.840Z,10.98
2019-04-06T09:15:40.353Z,13.53
2019-04-06T09:18:10.694Z,9.48
2019-04-06T09:20:42.086Z,10.53
2019-04-06T09:23:12.488Z,10.65
2019-04-06T09:25:42.683Z,11.03
2019-04-06T09:28:13.067Z,11.57
2019-04-06T09:30:43.356Z,9.50
2019-04-06T09:33:25.541Z,10.38
2019-04-06T09:35:55.985Z,9.05
2019-04-06T09:38:26.354Z,13.20
2019-04-06T09:40:56.692Z,11.90
2019-04-06T09:43:27.077Z,10.38
2019-04-06T09:46:34.792Z,10.10
2019-04-06T09:49:27.773Z,8.80
2019-04-06T09:52:09.028Z,10.85
2019-04-06T09:55:08.482Z,8.95
2019-04-06T09:58:06.555Z,8.83
2019-04-06T10:00:45.446Z,10.23
2019-04-06T10:03:47.055Z,11.65
2019-04-06T10:06:34.993Z,9.85
2019-04-06T10:09:25.265Z,11.53
2019-04-06T10:12:14.654Z,10.25
2019-04-06T10:15:02.776Z,9.65
2019-04-06T10:17:56.215Z,9.75
2019-04-06T10:20:44.479Z,8.75
2019-04-06T10:23:32.658Z,8.63
2019-04-06T10:26:21.083Z,10.05
2019-04-06T10:29:04.720Z,8.65
2019-04-06T10:31:52.334Z,8.38
2019-04-06T10:34:40.653Z,9.10
2019-04-06T10:37:31.789Z,9.68
2019-04-06T10:40:24.021Z,9.40
2019-04-06T10:43:22.852Z,11.08
2019-04-06T10:46:21.397Z,11.57
2019-04-06T10:49:10.735Z,9.38
2019-04-06T10:51:58.821Z,10.13
2019-04-06T10:54:50.873Z,11.03
2019-04-06T10:57:43.663Z,9.20
2019-04-06T11:00:31.986Z,8.08
2019-04-06T11:03:24.343Z,9.38
2019-04-06T11:06:00.269Z,11.28
2019-04-06T11:09:13.130Z,7.67
2019-04-06T11:11:56.197Z,8.90
2019-04-06T11:15:00.534Z,7.80
2019-04-06T11:17:50.730Z,9.13
2019-04-06T11:20:52.020Z,8.95
2019-04-06T11:23:40.772Z,8.20
2019-04-06T11:26:38.968Z,9.33
2019-04-06T11:29:14.950Z,8.53
2019-04-06T11:31:58.510Z,8.83
2019-04-06T11:34:46.631Z,9.60
2019-04-06T11:37:31.164Z,9.00
2019-04-06T11:40:20.429Z,9.45
2019-04-06T11:43:09.818Z,9.05
2019-04-06T11:46:08.325Z,8.10
2019-04-06T11:49:06.979Z,7.97
2019-04-06T11:51:55.052Z,9.43
2019-04-06T11:54:44.231Z,8.83
2019-04-06T11:57:46.020Z,9.70
2019-04-06T12:00:41.114Z,8.80
2019-04-06T12:03:35.132Z,10.68
2019-04-06T12:06:24.518Z,8.50
2019-04-06T12:09:16.665Z,8.38
2019-04-06T12:12:18.512Z,9.70
2019-04-06T12:15:23.058Z,7.37
2019-04-06T12:18:10.271Z,8.58
2019-04-06T12:21:02.754Z,8.95
2019-04-06T12:24:01.533Z,11.45
2019-04-06T12:26:56.819Z,8.10
2019-04-06T12:29:46.162Z,8.75
2019-04-06T12:32:27.292Z,9.48
2019-04-06T12:35:19.527Z,8.83
2019-04-06T12:37:57.426Z,9.03
2019-04-06T12:40:45.406Z,8.43
2019-04-06T12:43:38.993Z,7.75
2019-04-06T12:46:27.280Z,9.40
2019-04-06T12:49:14.427Z,9.68
2019-04-06T12:52:09.345Z,7.90
2019-04-06T12:55:07.509Z,8.98
2019-04-06T12:57:56.878Z,7.17
2019-04-06T13:00:52.109Z,7.28
2019-04-06T13:03:26.186Z,8.58
2019-04-06T13:06:15.195Z,8.78
2019-04-06T13:09:07.294Z,8.38
2019-04-06T13:11:48.764Z,7.30
2019-04-06T13:14:30.637Z,8.18
2019-04-06T13:17:23.577Z,8.25
2019-04-06T13:20:11.760Z,9.53
2019-04-06T13:23:01.518Z,9.90
2019-04-06T13:25:54.147Z,8.85
2019-04-06T13:28:34.458Z,10.10
2019-04-06T13:31:27.012Z,7.60
2019-04-06T13:34:22.483Z,10.68
2019-04-06T13:37:11.926Z,7.85
2019-04-06T13:39:52.080Z,8.68
2019-04-06T13:42:36.032Z,8.95
2019-04-06T13:45:21.889Z,8.63
2019-04-06T13:48:10.415Z,9.58
2019-04-06T13:50:53.707Z,8.38
2019-04-06T13:53:46.148Z,9.35
2019-04-06T13:56:44.420Z,8.18
2019-04-06T13:59:49.985Z,9.40
2019-04-06T14:02:39.233Z,11.03
2019-04-06T14:05:20.496Z,7.60
2019-04-06T14:08:15.874Z,8.05
2019-04-06T14:11:08.319Z,8.73
2019-04-06T14:13:54.753Z,9.35
2019-04-06T14:16:47.759Z,9.20
2019-04-06T14:19:46.121Z,9.75
2019-04-06T14:22:49.042Z,7.50
2019-04-06T14:25:50.140Z,7.40
2019-04-06T14:28:48.482Z,8.55
2019-04-06T14:31:36.586Z,8.05
2019-04-06T14:34:24.940Z,9.18
2019-04-06T14:37:09.936Z,8.13
2019-04-06T14:40:17.724Z,7.70
2019-04-06T14:43:09.928Z,10.48
2019-04-06T14:46:02.359Z,9.75
2019-04-06T14:48:47.181Z,8.30
2019-04-06T14:51:29.959Z,8.53
2019-04-06T14:54:18.679Z,8.40
2019-04-06T14:57:11.380Z,8.03
2019-04-06T15:00:19.648Z,10.00
2019-04-06T15:03:07.976Z,8.38
2019-04-06T15:05:52.867Z,10.32
2019-04-06T15:08:35.456Z,7.72
2019-04-06T15:11:25.276Z,10.05
2019-04-06T15:14:14.864Z,9.40
2019-04-06T15:17:07.343Z,10.58
2019-04-06T15:20:02.739Z,9.98
2019-04-06T15:23:04.847Z,7.65
2019-04-06T15:26:04.421Z,7.80
2019-04-06T15:28:55.219Z,7.30
2019-04-06T15:31:59.653Z,9.15
2019-04-06T15:35:07.322Z,6.75
2019-04-06T15:37:45.130Z,7.87
2019-04-06T15:40:21.604Z,7.83
2019-04-06T15:43:07.911Z,6.95
2019-04-06T15:45:55.895Z,8.68
2019-04-06T15:48:44.207Z,9.10
2019-04-06T15:51:32.792Z,9.18
2019-04-06T15:54:15.741Z,9.65
2019-04-06T15:57:01.595Z,7.33
2019-04-06T15:59:39.059Z,7.60
2019-04-06T16:02:37.341Z,8.28
2019-04-06T16:05:39.019Z,11.22
2019-04-06T16:08:22.044Z,8.95
2019-04-06T16:11:36.743Z,9.75
2019-04-06T16:14:41.544Z,9.40
2019-04-06T16:17:58.697Z,8.55
2019-04-06T16:20:46.954Z,10.90
2019-04-06T16:23:35.188Z,8.03
2019-04-06T16:26:27.908Z,9.13
2019-04-06T16:29:24.091Z,6.92
2019-04-06T16:32:31.462Z,8.55
2019-04-06T16:35:28.457Z,8.08
2019-04-06T16:38:17.775Z,7.58
2019-04-06T16:41:13.175Z,8.05
2019-04-06T16:44:11.977Z,6.65
2019-04-06T16:47:20.592Z,9.35
2019-04-06T16:50:08.927Z,7.90
2019-04-06T16:53:10.231Z,8.48
2019-04-06T16:55:58.588Z,7.85
2019-04-06T16:58:44.894Z,9.13
2019-04-06T17:01:26.280Z,8.40
2019-04-06T17:04:05.922Z,8.55
2019-04-06T17:06:41.728Z,9.30
2019-04-06T17:09:23.117Z,9.58
2019-04-06T17:12:11.683Z,7.70
2019-04-06T17:15:07.324Z,9.30
2019-04-06T17:18:10.309Z,9.63
2019-04-06T17:21:02.826Z,9.30
2019-04-06T17:23:49.755Z,7.60
2019-04-06T17:26:27.577Z,8.65
2019-04-06T17:29:19.887Z,8.83
2019-04-06T17:32:10.365Z,10.18
2019-04-06T17:34:54.302Z,9.58
2019-04-06T17:37:34.771Z,7.33
2019-04-06T17:40:30.576Z,9.20
2019-04-06T17:43:12.520Z,10.45
2019-04-06T17:45:49.652Z,11.38
2019-04-06T17:48:39.052Z,12.65
2019-04-06T17:51:37.621Z,8.78
2019-04-06T17:54:24.356Z,9.43
2019-04-06T17:57:19.804Z,9.75
2019-04-06T18:00:20.658Z,9.18
2019-04-06T18:03:22.496Z,10.82
2019-04-06T18:06:18.557Z,8.63
2019-04-06T18:09:18.052Z,11.35
2019-04-06T18:12:10.731Z,10.25
2019-04-06T18:14:41.298Z,10.75
2019-04-06T18:17:11.553Z,12.95
2019-04-06T18:19:41.850Z,10.75
2019-04-06T18:22:12.382Z,10.23
2019-04-06T18:24:43.331Z,10.53
2019-04-06T18:27:13.876Z,10.85
2019-04-06T18:29:44.349Z,12.45
2019-04-06T18:32:26.098Z,12.75
2019-04-06T18:34:56.456Z,12.23
2019-04-06T18:37:45.943Z,12.75
2019-04-06T18:40:22.880Z,12.15
2019-04-06T18:42:53.301Z,12.55
2019-04-06T18:45:24.181Z,12.60
2019-04-06T18:47:54.694Z,11.63
2019-04-06T18:50:34.227Z,11.80
2019-04-06T18:52:57.152Z,12.98
2019-04-06T18:55:27.762Z,11.70
2019-04-06T18:58:08.830Z,10.23
2019-04-06T19:00:30.064Z,14.85
2019-04-06T19:03:10.967Z,12.18
2019-04-06T19:05:32.447Z,12.68
2019-04-06T19:08:02.993Z,12.90
2019-04-06T19:10:34.839Z,12.18
2019-04-06T19:13:05.417Z,10.28
2019-04-06T19:15:35.872Z,11.55
2019-04-06T19:18:06.224Z,13.65
2019-04-06T19:20:36.593Z,12.63
2019-04-06T19:23:07.099Z,13.75
2019-04-06T19:25:37.636Z,12.65
2019-04-06T19:28:08.009Z,16.10
2019-04-06T19:30:38.381Z,12.35
2019-04-06T19:33:08.680Z,12.37
2019-04-06T19:35:39.048Z,11.97
2019-04-06T19:38:09.663Z,12.58
2019-04-06T19:40:41.045Z,12.98
2019-04-06T19:43:11.762Z,16.00
2019-04-06T19:45:42.321Z,15.05
2019-04-06T19:48:12.570Z,14.43
2019-04-06T19:50:43.005Z,14.95
2019-04-06T19:53:13.421Z,13.60
2019-04-06T19:55:43.829Z,17.30
2019-04-06T19:58:14.101Z,15.48
2019-04-06T20:00:44.504Z,14.35
2019-04-06T20:03:15.478Z,15.03
2019-04-06T20:05:46.011Z,15.78
2019-04-06T20:08:16.365Z,15.23
2019-04-06T20:10:47.939Z,13.28
2019-04-06T20:13:18.397Z,16.48
2019-04-06T20:15:49.173Z,19.90
2019-04-06T20:18:19.678Z,18.10
2019-04-06T20:20:50.516Z,16.85
2019-04-06T20:23:21.116Z,16.60
2019-04-06T20:25:51.962Z,17.40
2019-04-06T20:28:22.589Z,15.15
2019-04-06T20:30:53.270Z,16.55
2019-04-06T20:33:23.846Z,16.45
2019-04-06T20:35:54.497Z,18.17
2019-04-06T20:38:24.907Z,17.77
2019-04-06T20:40:55.358Z,16.77
2019-04-06T20:43:25.633Z,17.90
2019-04-06T20:45:56.561Z,20.17
2019-04-06T20:48:26.975Z,18.42
2019-04-06T20:51:16.491Z,18.57
2019-04-06T20:53:46.806Z,19.12
2019-04-06T20:56:17.240Z,16.60
2019-04-06T20:58:49.132Z,19.57
2019-04-06T21:01:20.974Z,19.73
2019-04-06T21:03:59.689Z,19.17
2019-04-06T21:06:23.536Z,18.32
2019-04-06T21:09:08.758Z,18.05
2019-04-06T21:11:39.395Z,19.98
2019-04-06T21:14:10.077Z,19.67
2019-04-06T21:16:40.649Z,21.45
2019-04-06T21:19:11.476Z,20.95
2019-04-06T21:21:41.938Z,21.97
2019-04-06T21:24:12.491Z,18.45
2019-04-06T21:26:43.317Z,19.32
2019-04-06T21:29:13.800Z,19.32
2019-04-06T21:31:44.708Z,20.60
2019-04-06T21:34:16.775Z,23.05
2019-04-06T21:36:47.312Z,21.68
2019-04-06T21:39:17.733Z,20.27
2019-04-06T21:41:48.623Z,18.65
2019-04-06T21:44:19.153Z,21.93
2019-04-06T21:46:49.524Z,21.52
2019-04-06T21:49:19.929Z,27.58
2019-04-06T21:51:50.295Z,20.23
2019-04-06T21:54:20.651Z,22.98
2019-04-06T21:56:51.792Z,23.77
2019-04-06T21:59:22.268Z,22.80
2019-04-06T22:01:52.855Z,25.05
2019-04-06T22:04:26.559Z,24.52
2019-04-06T22:06:55.631Z,24.00
2019-04-06T22:09:27.192Z,23.12
2019-04-06T22:11:58.394Z,25.82
2019-04-06T22:14:29.297Z,27.90
2019-04-06T22:16:59.945Z,25.27
2019-04-06T22:19:42.676Z,21.85
2019-04-06T22:22:13.175Z,23.27
2019-04-06T22:24:43.610Z,23.10
2019-04-06T22:27:14.213Z,23.40
2019-04-06T22:29:44.674Z,23.05
2019-04-06T22:32:15.333Z,27.20
2019-04-06T22:34:47.536Z,23.38
2019-04-06T22:37:18.074Z,23.30
2019-04-06T22:39:48.875Z,24.37
2019-04-06T22:42:19.350Z,23.05
2019-04-06T22:44:49.688Z,26.55
2019-04-06T22:47:20.067Z,26.02
2019-04-06T22:49:51.009Z,26.42
2019-04-06T22:52:21.432Z,27.07
2019-04-06T22:54:51.767Z,25.72
2019-04-06T22:57:22.140Z,23.95
2019-04-06T22:59:52.453Z,23.85
2019-04-06T23:02:22.847Z,27.35
2019-04-06T23:04:58.117Z,27.60
2019-04-06T23:07:28.435Z,27.67
2019-04-06T23:09:58.880Z,28.15
2019-04-06T23:12:29.375Z,26.85
2019-04-06T23:15:00.313Z,26.27
2019-04-06T23:17:33.045Z,25.77
2019-04-06T23:20:03.782Z,25.43
2019-04-06T23:22:34.235Z,29.00
2019-04-06T23:25:04.819Z,27.58
2019-04-06T23:27:35.318Z,26.50
2019-04-06T23:30:06.638Z,28.00
2019-04-06T23:32:37.427Z,26.82
2019-04-06T23:35:08.182Z,27.00
2019-04-06T23:37:39.135Z,27.37
2019-04-06T23:40:09.920Z,27.35
2019-04-06T23:42:40.532Z,31.20
2019-04-06T23:45:10.840Z,25.55
2019-04-06T23:47:41.326Z,26.27
2019-04-06T23:50:13.349Z,28.98
2019-04-06T23:52:45.089Z,25.80
2019-04-06T23:55:15.433Z,28.32
2019-04-06T23:57:45.737Z,26.80
